Time;durP1;ratioP1;P1;durP2;ratioP2;P2;SDS_P1;SDS_P2;PMS_P1;PMS_P2;Temp;Humidity;BMP_temperature;BMP_pressure;BME280_temperature;BME280_humidity;BME280_pressure;Samples;Min_cycle;Max_cycle;Signal;HPM_P1;HPM_P2
2021/09/07 00:00:15;;;;;;;11.83;9.60;;;;;;;13.30;77.64;100210.88;5088741;28;20225;-86
2021/09/07 00:02:42;;;;;;;12.77;8.97;;;;;;;13.40;77.95;100235.41;5089514;28;20228;-84
2021/09/07 00:05:27;;;;;;;10.97;9.87;;;;;;;13.30;77.89;100218.16;5092433;28;20295;-84
2021/09/07 00:07:56;;;;;;;11.17;9.60;;;;;;;13.20;77.86;100205.22;5110762;28;20214;-83
2021/09/07 00:10:32;;;;;;;12.10;9.80;;;;;;;13.32;77.69;100229.50;5112670;28;20229;-84
2021/09/07 00:13:35;;;;;;;10.80;9.43;;;;;;;13.28;77.54;100225.63;5110963;28;20227;-84
2021/09/07 00:16:06;;;;;;;11.40;9.07;;;;;;;13.26;77.48;100228.53;5096070;28;20199;-83
2021/09/07 00:18:37;;;;;;;11.23;9.50;;;;;;;13.18;77.83;100220.75;5095922;28;20224;-83
2021/09/07 00:21:04;;;;;;;10.40;9.40;;;;;;;13.12;77.99;100206.31;5082922;23;20260;-83
2021/09/07 00:23:57;;;;;;;11.10;9.93;;;;;;;13.11;78.06;100217.31;5078827;23;20256;-83
2021/09/07 00:26:31;;;;;;;11.47;9.60;;;;;;;13.10;78.31;100224.53;5098085;22;20223;-84
2021/09/07 00:29:30;;;;;;;11.53;9.70;;;;;;;13.05;78.30;100224.38;5068492;23;20226;-84
2021/09/07 00:32:22;;;;;;;10.70;9.60;;;;;;;12.94;77.92;100214.31;5058255;28;20214;-84
2021/09/07 00:35:24;;;;;;;13.23;9.20;;;;;;;12.87;78.63;100205.50;5073325;28;20252;-81
2021/09/07 00:38:28;;;;;;;11.40;9.87;;;;;;;12.92;78.75;100212.91;5001716;28;20203;-82
2021/09/07 00:41:12;;;;;;;10.90;9.80;;;;;;;12.91;78.81;100213.94;5050053;23;20208;-83
2021/09/07 00:43:41;;;;;;;12.17;10.40;;;;;;;12.85;78.67;100190.59;5098442;22;20240;-83
2021/09/07 00:46:17;;;;;;;11.47;10.27;;;;;;;12.89;78.89;100197.19;5091354;28;20228;-82
2021/09/07 00:48:54;;;;;;;11.73;9.93;;;;;;;12.87;78.83;100199.28;5093258;28;20232;-82
2021/09/07 00:52:01;;;;;;;10.80;9.70;;;;;;;12.93;79.02;100206.47;5093735;28;20276;-82
2021/09/07 00:54:38;;;;;;;12.43;10.73;;;;;;;12.86;79.00;100208.41;5101034;22;20183;-83
2021/09/07 00:57:17;;;;;;;13.40;10.20;;;;;;;12.86;79.21;100203.84;5062772;28;20228;-82
2021/09/07 01:00:15;;;;;;;13.37;10.33;;;;;;;12.79;79.28;100203.06;5186021;22;20224;-82
2021/09/07 01:03:47;;;;;;;11.23;10.00;;;;;;;12.68;80.02;100204.63;5209649;22;20477;-82
2021/09/07 01:06:19;;;;;;;11.50;9.87;;;;;;;12.69;79.40;100202.75;5089348;22;20259;31
2021/09/07 01:09:18;;;;;;;11.77;10.57;;;;;;;12.59;80.18;100197.88;5038744;23;20233;-83
2021/09/07 01:11:45;;;;;;;11.63;10.43;;;;;;;12.59;80.34;100197.06;5095204;23;20228;-83
2021/09/07 01:14:18;;;;;;;12.27;10.70;;;;;;;12.51;80.35;100192.75;5093242;28;20214;-83
2021/09/07 01:16:48;;;;;;;12.93;10.40;;;;;;;12.51;80.44;100186.53;5093803;28;20221;-83
2021/09/07 01:19:19;;;;;;;11.30;10.07;;;;;;;12.52;80.15;100194.41;5102963;23;20239;-83
2021/09/07 01:21:53;;;;;;;10.70;9.60;;;;;;;12.49;79.93;100186.78;5091190;28;20292;-83
2021/09/07 01:24:56;;;;;;;10.67;9.57;;;;;;;12.60;80.69;100198.66;5093576;28;20268;-83
2021/09/07 01:27:27;;;;;;;13.50;10.43;;;;;;;12.59;80.70;100197.06;5063336;22;20304;-84
2021/09/07 01:29:59;;;;;;;11.50;10.40;;;;;;;12.57;80.84;100191.88;5020910;28;20249;-83
2021/09/07 01:32:28;;;;;;;14.63;10.60;;;;;;;12.58;81.10;100198.09;5175845;22;20228;-82
2021/09/07 01:35:18;;;;;;;11.73;10.23;;;;;;;12.61;80.80;100184.19;5179430;23;20255;-83
2021/09/07 01:37:53;;;;;;;10.97;9.47;;;;;;;12.58;80.80;100198.91;5052831;28;20234;-82
2021/09/07 01:40:34;;;;;;;11.13;10.03;;;;;;;12.55;80.94;100185.09;5090268;23;20239;-82
2021/09/07 01:43:37;;;;;;;10.80;9.67;;;;;;;12.51;80.73;100187.38;5089874;23;20232;-82
2021/09/07 01:46:06;;;;;;;11.40;10.20;;;;;;;12.45;81.09;100192.81;5058317;28;20289;-82
2021/09/07 01:48:33;;;;;;;11.97;10.23;;;;;;;12.44;80.67;100193.84;5073276;28;20174;-82
2021/09/07 01:51:00;;;;;;;10.93;9.90;;;;;;;12.35;80.81;100179.84;5090712;23;20266;-81
2021/09/07 01:53:31;;;;;;;11.43;10.13;;;;;;;12.35;80.93;100179.84;5113810;28;20235;-82
2021/09/07 01:56:02;;;;;;;10.93;9.83;;;;;;;12.30;81.34;100180.50;5113848;28;20241;-82
2021/09/07 01:58:31;;;;;;;12.03;10.07;;;;;;;12.26;81.43;100187.38;5114052;22;20224;-82
2021/09/07 02:01:09;;;;;;;11.50;10.30;;;;;;;12.15;81.42;100180.00;5092639;28;20232;-82
2021/09/07 02:03:51;;;;;;;10.80;9.70;;;;;;;12.21;81.63;100189.06;5096442;28;20283;-82
2021/09/07 02:06:24;;;;;;;10.13;8.73;;;;;;;12.12;81.27;100185.81;5111148;22;20250;-82
2021/09/07 02:09:12;;;;;;;11.67;9.57;;;;;;;12.13;81.14;100176.69;5115398;28;20236;-82
2021/09/07 02:11:46;;;;;;;10.97;9.70;;;;;;;12.14;81.23;100183.72;5116275;28;20228;-81
2021/09/07 02:17:13;;;;;;;12.70;10.47;;;;;;;11.90;81.30;100155.75;5099694;23;20295;-82
2021/09/07 02:19:45;;;;;;;11.00;9.87;;;;;;;12.06;81.32;100180.47;5067072;23;20217;-82
2021/09/07 02:22:57;;;;;;;12.53;10.10;;;;;;;12.05;81.60;100187.69;5089331;28;20221;-82
2021/09/07 02:25:30;;;;;;;12.73;10.33;;;;;;;11.99;81.61;100171.63;5074422;28;20192;-82
2021/09/07 02:28:02;;;;;;;13.13;11.07;;;;;;;12.00;81.58;100174.09;5076221;23;20225;-81
2021/09/07 02:30:45;;;;;;;11.40;9.90;;;;;;;12.01;82.07;100183.78;5039033;28;20257;-82
2021/09/07 02:33:20;;;;;;;12.57;10.40;;;;;;;11.99;81.95;100179.69;5044210;28;20229;-81
2021/09/07 02:35:51;;;;;;;11.53;10.30;;;;;;;12.03;81.96;100179.03;5048821;23;20620;-82
2021/09/07 02:38:24;;;;;;;11.10;10.00;;;;;;;12.03;81.82;100180.91;5087322;23;20229;-82
2021/09/07 02:41:39;;;;;;;11.07;9.97;;;;;;;12.03;81.99;100172.84;5085109;22;20248;-81
2021/09/07 02:44:18;;;;;;;10.93;9.83;;;;;;;11.97;82.04;100168.31;5093739;28;20241;-82
2021/09/07 02:46:58;;;;;;;11.70;10.43;;;;;;;11.89;82.30;100167.56;5102121;23;20223;-82
2021/09/07 02:49:35;;;;;;;12.73;10.90;;;;;;;11.82;82.65;100156.00;5094864;28;20209;-81
2021/09/07 02:52:20;;;;;;;11.90;10.37;;;;;;;11.89;82.44;100170.25;5109395;22;20223;-81
2021/09/07 02:54:57;;;;;;;11.53;10.43;;;;;;;11.86;82.42;100173.34;5094263;23;20263;-81
2021/09/07 02:57:57;;;;;;;11.23;10.03;;;;;;;11.75;82.82;100167.84;5074218;28;20362;-82
2021/09/07 03:00:38;;;;;;;10.87;9.73;;;;;;;11.76;82.71;100169.44;5091846;23;20255;-82
2021/09/07 03:03:09;;;;;;;11.83;10.67;;;;;;;11.66;83.53;100177.13;5084760;22;20220;-81
2021/09/07 03:06:22;;;;;;;12.93;11.00;;;;;;;11.65;83.24;100179.00;5116565;22;20461;-82
2021/09/07 03:08:58;;;;;;;13.87;10.67;;;;;;;11.60;83.38;100169.94;5094353;28;20230;-82
2021/09/07 03:12:05;;;;;;;13.37;10.27;;;;;;;11.54;83.65;100166.22;5094103;28;20239;-82
2021/09/07 03:14:35;;;;;;;11.17;9.97;;;;;;;11.58;83.65;100172.81;5083266;23;20243;-82
2021/09/07 03:17:30;;;;;;;11.97;10.30;;;;;;;11.60;83.90;100178.81;5099940;22;20254;-82
2021/09/07 03:20:14;;;;;;;11.40;10.23;;;;;;;11.62;84.00;100173.22;5113679;22;20283;-83
2021/09/07 03:22:49;;;;;;;11.90;10.27;;;;;;;11.62;84.12;100163.28;5082293;28;20172;-82
2021/09/07 03:25:50;;;;;;;12.83;11.00;;;;;;;11.66;84.07;100153.81;5113528;28;20228;-81
2021/09/07 03:28:20;;;;;;;13.00;11.10;;;;;;;11.78;83.92;100162.84;5079871;22;20263;-82
2021/09/07 03:31:11;;;;;;;11.93;10.73;;;;;;;11.93;84.09;100169.78;5071823;23;20247;-82
2021/09/07 03:33:54;;;;;;;11.53;10.33;;;;;;;12.00;84.02;100176.75;5097801;23;20221;-82
2021/09/07 03:37:09;;;;;;;12.10;10.83;;;;;;;12.11;83.87;100183.31;5087756;23;20224;-82
2021/09/07 03:39:57;;;;;;;11.70;10.50;;;;;;;12.09;83.84;100174.63;5084925;22;20243;-82
2021/09/07 03:42:32;;;;;;;12.60;10.80;;;;;;;12.13;83.52;100174.00;5200285;22;20259;-83
2021/09/07 03:45:06;;;;;;;11.50;10.30;;;;;;;12.07;83.53;100166.00;5056941;28;20272;-82
2021/09/07 03:47:55;;;;;;;11.33;10.13;;;;;;;12.14;83.22;100183.72;5074121;28;20572;-82
2021/09/07 03:50:40;;;;;;;11.47;10.00;;;;;;;12.01;83.19;100167.69;5073565;28;20248;-82
2021/09/07 03:56:28;;;;;;;11.93;10.73;;;;;;;11.93;83.37;100176.00;5031835;28;20186;-82
2021/09/07 03:59:05;;;;;;;11.70;9.77;;;;;;;11.88;83.69;100168.59;5107590;22;20251;-82
2021/09/07 04:01:32;;;;;;;10.90;9.80;;;;;;;11.79;83.44;100177.94;5066994;22;20185;-83
2021/09/07 04:04:43;;;;;;;11.33;10.20;;;;;;;11.76;83.30;100177.50;5092735;22;20223;-82
2021/09/07 04:07:25;;;;;;;12.07;10.10;;;;;;;11.72;83.20;100173.56;5014851;28;20237;-82
2021/09/07 04:10:09;;;;;;;10.97;9.87;;;;;;;11.67;83.13;100184.13;5034066;28;20234;-81
2021/09/07 04:12:39;;;;;;;12.13;10.60;;;;;;;11.56;83.32;100176.75;5034954;22;21359;-82
2021/09/07 04:15:25;;;;;;;11.80;10.67;;;;;;;11.52;82.79;100179.06;5196789;22;20218;-81
2021/09/07 04:18:20;;;;;;;11.77;10.57;;;;;;;11.46;83.07;100174.53;5091798;22;20216;-81
2021/09/07 04:21:16;;;;;;;11.57;10.37;;;;;;;11.48;83.33;100183.16;5032246;28;20603;-82
2021/09/07 04:23:47;;;;;;;11.27;10.17;;;;;;;11.44;83.41;100188.13;5065415;23;20233;-82
2021/09/07 04:26:29;;;;;;;11.13;10.03;;;;;;;11.51;83.49;100188.13;5082643;22;20277;-83
2021/09/07 04:29:04;;;;;;;13.73;10.03;;;;;;;11.52;83.52;100189.78;5095914;23;20308;-82
2021/09/07 04:31:53;;;;;;;11.13;9.77;;;;;;;11.52;83.38;100186.28;5192469;22;20212;-82
2021/09/07 04:34:46;;;;;;;12.40;10.20;;;;;;;11.60;83.33;100196.75;5193465;22;20252;-82
2021/09/07 04:37:17;;;;;;;11.77;9.63;;;;;;;11.64;82.65;100190.75;5066694;23;20220;-82
2021/09/07 04:39:50;;;;;;;12.47;10.23;;;;;;;11.57;82.50;100179.22;5090417;23;20232;-81
2021/09/07 04:42:35;;;;;;;13.00;10.17;;;;;;;11.76;82.25;100198.97;5060467;28;20239;-81
2021/09/07 04:45:09;;;;;;;13.00;10.63;;;;;;;11.82;82.53;100198.97;5065444;23;20210;-81
2021/09/07 04:47:45;;;;;;;13.10;10.00;;;;;;;11.83;82.22;100183.69;5067005;23;20229;-81
2021/09/07 04:50:29;;;;;;;12.13;10.30;;;;;;;11.91;81.95;100200.38;5087430;23;20235;-81
2021/09/07 04:53:06;;;;;;;12.40;10.23;;;;;;;11.98;81.44;100186.91;5084500;28;20214;-81
2021/09/07 04:56:03;;;;;;;11.80;9.97;;;;;;;12.29;81.39;100212.97;5116597;28;20266;-81
2021/09/07 04:58:42;;;;;;;12.60;10.10;;;;;;;12.41;80.86;100213.91;5100526;28;20511;-82
2021/09/07 05:01:15;;;;;;;10.87;9.67;;;;;;;12.36;80.27;100203.81;5098944;23;20232;-82
2021/09/07 05:04:13;;;;;;;11.17;10.00;;;;;;;12.57;80.48;100223.31;5083080;23;20315;-81
2021/09/07 05:09:56;;;;;;;11.97;10.00;;;;;;;12.63;79.80;100206.31;5076431;23;20231;-81
2021/09/07 05:12:30;;;;;;;11.50;10.00;;;;;;;12.76;79.21;100214.28;5092900;22;20208;-81
2021/09/07 05:14:57;;;;;;;11.77;9.80;;;;;;;12.88;78.53;100214.41;5079466;23;20256;-82
2021/09/07 05:17:37;;;;;;;11.47;9.80;;;;;;;12.98;79.19;100214.69;5055835;28;20294;-81
2021/09/07 05:20:10;;;;;;;11.30;9.30;;;;;;;13.08;78.44;100229.28;5072850;28;20710;-81
2021/09/07 05:22:49;;;;;;;11.57;9.97;;;;;;;13.17;78.19;100222.63;5074661;28;20228;-81
2021/09/07 05:25:55;;;;;;;11.57;9.27;;;;;;;13.40;77.86;100224.66;5091250;22;20238;-81
2021/09/07 05:28:45;;;;;;;10.73;9.33;;;;;;;13.46;77.49;100225.63;5091773;22;20235;-82
2021/09/07 05:31:35;;;;;;;10.57;9.10;;;;;;;13.71;76.61;100231.78;5072278;28;20221;-82
2021/09/07 05:34:13;;;;;;;10.73;9.20;;;;;;;13.81;75.96;100220.47;5084481;23;20238;-82
2021/09/07 05:37:11;;;;;;;10.20;9.20;;;;;;;14.03;75.53;100230.53;5078618;28;20232;-82
2021/09/07 05:39:53;;;;;;;9.47;8.43;;;;;;;14.10;74.66;100236.66;5090820;28;20220;-83
2021/09/07 05:42:35;;;;;;;14.10;8.60;;;;;;;14.12;74.39;100225.66;5083617;23;20244;-81
2021/09/07 05:45:48;;;;;;;12.30;8.73;;;;;;;14.26;73.99;100240.59;5098431;28;20222;-82
2021/09/07 05:48:46;;;;;;;12.23;9.07;;;;;;;14.33;73.50;100233.22;5100244;22;20244;-83
2021/09/07 05:51:23;;;;;;;10.50;8.27;;;;;;;14.51;72.38;100224.28;5102668;23;20217;-81
2021/09/07 05:53:57;;;;;;;9.63;8.03;;;;;;;14.78;72.23;100230.91;5073368;28;20540;-83
2021/09/07 05:56:43;;;;;;;11.87;9.00;;;;;;;14.99;71.73;100224.94;5045536;28;20248;-81
2021/09/07 05:59:11;;;;;;;12.53;8.40;;;;;;;15.33;70.76;100238.69;5049246;28;20269;-92
2021/09/07 06:01:38;;;;;;;11.00;8.33;;;;;;;15.52;70.05;100244.78;5061487;28;20304;-92
2021/09/07 06:04:05;;;;;;;11.47;8.37;;;;;;;15.63;69.18;100244.75;5058192;28;20230;-95
2021/09/07 06:06:32;;;;;;;15.13;8.00;;;;;;;15.89;67.86;100253.41;5040651;28;20611;-91
2021/09/07 06:08:59;;;;;;;9.63;8.57;;;;;;;16.03;67.78;100252.09;5041204;28;20224;-95
2021/09/07 06:11:26;;;;;;;10.60;7.97;;;;;;;16.13;66.81;100239.59;5040715;28;20234;-93
2021/09/07 06:13:53;;;;;;;12.13;7.87;;;;;;;16.42;66.11;100245.00;5023877;28;20243;-93
2021/09/07 06:16:21;;;;;;;8.93;7.77;;;;;;;16.59;65.71;100237.75;5047607;28;20233;-96
2021/09/07 06:18:48;;;;;;;10.27;7.37;;;;;;;16.85;64.79;100237.09;5023854;28;20219;-91
2021/09/07 06:21:15;;;;;;;9.77;8.30;;;;;;;17.10;63.89;100240.22;5007202;28;20229;-93
2021/09/07 06:23:58;;;;;;;11.37;8.70;;;;;;;17.37;63.10;100243.06;5042485;28;20315;-94
2021/09/07 06:26:25;;;;;;;10.37;8.30;;;;;;;17.59;62.73;100240.41;5039353;28;20232;-95
2021/09/07 06:28:52;;;;;;;10.57;8.33;;;;;;;17.66;61.72;100241.06;5019968;28;20248;-85
2021/09/07 06:31:19;;;;;;;10.00;8.23;;;;;;;17.79;60.79;100242.56;5032990;28;20254;-96
2021/09/07 06:33:45;;;;;;;12.50;7.77;;;;;;;17.90;60.18;100238.91;5039475;28;20218;-90
2021/09/07 06:36:12;;;;;;;10.30;8.27;;;;;;;18.03;59.88;100235.81;5039439;28;20236;-90
2021/09/07 06:38:39;;;;;;;9.80;7.57;;;;;;;17.97;60.06;100245.78;5039935;28;20241;-92
2021/09/07 06:41:07;;;;;;;9.37;7.83;;;;;;;17.93;59.74;100224.84;5023208;28;20598;-95
2021/09/07 06:43:35;;;;;;;8.83;7.57;;;;;;;18.04;59.37;100237.47;5038873;28;20252;-91
2021/09/07 06:46:02;;;;;;;9.70;7.70;;;;;;;18.00;58.82;100249.88;5016038;28;20224;-89
2021/09/07 06:48:29;;;;;;;11.33;7.50;;;;;;;18.01;58.78;100237.94;5039293;28;20275;-92
2021/09/07 06:50:56;;;;;;;11.40;7.67;;;;;;;18.08;58.78;100222.31;5022891;28;20278;-88
2021/09/07 06:53:23;;;;;;;10.67;7.83;;;;;;;18.26;57.60;100227.41;5022468;28;20236;-85
2021/09/07 06:55:50;;;;;;;11.27;7.37;;;;;;;18.52;58.18;100235.81;5005244;28;20254;-84
2021/09/07 06:58:21;;;;;;;13.13;9.10;;;;;;;18.63;58.09;100224.81;5018461;28;20328;-96
2021/09/07 07:00:48;;;;;;;10.47;7.70;;;;;;;18.86;57.61;100235.31;5035197;28;20237;-92
2021/09/07 07:03:15;;;;;;;12.97;8.13;;;;;;;19.13;56.93;100234.44;5029528;28;20233;-91
2021/09/07 07:05:42;;;;;;;10.90;8.30;;;;;;;19.25;57.04;100233.16;5038655;28;20225;-96
2021/09/07 07:08:08;;;;;;;10.10;8.10;;;;;;;19.57;55.22;100233.13;5021856;28;20228;-88
2021/09/07 07:10:35;;;;;;;15.60;8.50;;;;;;;19.87;54.97;100232.44;5021552;28;20683;-95
2021/09/07 07:13:02;;;;;;;12.23;8.03;;;;;;;20.18;53.86;100230.63;5022009;28;20217;-95
2021/09/07 07:15:29;;;;;;;13.80;8.07;;;;;;;20.32;53.08;100248.13;5022162;28;20233;-94
2021/09/07 07:17:56;;;;;;;9.17;7.73;;;;;;;20.39;53.46;100243.22;5022050;28;20256;-93
2021/09/07 07:20:23;;;;;;;11.40;7.87;;;;;;;20.50;53.17;100246.78;5037764;28;20507;-93
2021/09/07 07:22:50;;;;;;;11.33;7.73;;;;;;;20.55;52.35;100242.16;5038273;28;20626;-94
2021/09/07 07:25:17;;;;;;;10.70;8.37;;;;;;;20.67;52.24;100249.28;5021690;28;20541;-91
2021/09/07 07:27:45;;;;;;;11.30;7.30;;;;;;;20.80;51.81;100246.84;5055688;28;20653;-82
2021/09/07 07:30:12;;;;;;;9.27;7.70;;;;;;;20.95;51.37;100240.56;5021090;28;20613;-89
2021/09/07 07:32:38;;;;;;;9.47;7.83;;;;;;;21.18;51.04;100252.84;5037875;28;20312;-91
2021/09/07 07:35:06;;;;;;;10.87;8.00;;;;;;;21.07;51.63;100241.09;5021466;28;20314;-92
2021/09/07 07:37:32;;;;;;;14.33;8.20;;;;;;;21.25;50.34;100256.09;5005400;28;20262;-93
2021/09/07 07:39:59;;;;;;;10.97;7.33;;;;;;;21.33;50.08;100255.53;5037492;28;20653;-83
2021/09/07 07:42:26;;;;;;;9.90;7.27;;;;;;;21.15;49.72;100243.28;5020606;28;20247;-95
2021/09/07 07:44:53;;;;;;;10.03;7.07;;;;;;;21.50;48.57;100251.44;5037651;28;20219;-93
2021/09/07 07:47:19;;;;;;;8.17;6.80;;;;;;;21.65;48.17;100244.31;5038138;28;20276;-86
2021/09/07 07:49:46;;;;;;;11.60;7.30;;;;;;;21.76;47.29;100251.34;5021669;28;20238;-88
2021/09/07 07:52:13;;;;;;;7.60;6.77;;;;;;;21.74;46.08;100237.19;5053205;28;20822;-89
2021/09/07 07:54:40;;;;;;;7.23;6.07;;;;;;;21.73;45.78;100244.53;5020543;28;20312;-89
2021/09/07 07:57:07;;;;;;;7.10;5.87;;;;;;;21.76;46.11;100237.69;5037976;28;20259;-87
2021/09/07 07:59:34;;;;;;;7.03;6.33;;;;;;;21.76;46.20;100248.59;5021277;28;20227;-94
2021/09/07 08:02:00;;;;;;;7.13;6.40;;;;;;;21.71;45.96;100251.34;5021534;28;20584;-94
2021/09/07 08:04:41;;;;;;;8.00;6.23;;;;;;;21.70;46.40;100246.97;5037227;28;20233;-92
2021/09/07 08:07:08;;;;;;;6.60;5.80;;;;;;;21.71;44.86;100251.34;5021248;28;20255;-94
2021/09/07 08:09:35;;;;;;;7.83;5.70;;;;;;;21.59;45.86;100248.13;5037598;28;20247;-90
2021/09/07 08:12:02;;;;;;;7.73;5.60;;;;;;;21.83;46.71;100260.06;5037040;28;20232;-91
2021/09/07 08:14:29;;;;;;;7.30;5.57;;;;;;;21.76;44.44;100254.06;5020649;28;20323;-89
2021/09/07 08:16:56;;;;;;;7.03;5.33;;;;;;;21.91;44.99;100260.28;5037503;28;20534;-94
2021/09/07 08:19:22;;;;;;;7.30;5.43;;;;;;;22.01;44.71;100261.38;5037668;28;20639;-88
2021/09/07 08:21:49;;;;;;;7.03;5.87;;;;;;;22.13;43.94;100251.75;5036567;28;20241;-91
2021/09/07 08:24:16;;;;;;;8.03;5.53;;;;;;;22.43;43.42;100241.78;5020179;28;20256;-90
2021/09/07 08:26:43;;;;;;;8.43;5.30;;;;;;;22.96;42.92;100251.78;5021408;28;20250;-91
2021/09/07 08:29:10;;;;;;;8.90;5.30;;;;;;;23.29;42.27;100247.38;5020952;28;20605;-87
2021/09/07 08:31:37;;;;;;;9.13;5.43;;;;;;;23.41;42.10;100236.06;5037142;28;20262;-86
2021/09/07 08:34:04;;;;;;;8.77;6.03;;;;;;;23.63;41.62;100244.59;5020156;28;20225;-90
2021/09/07 08:36:31;;;;;;;8.47;6.37;;;;;;;23.93;40.88;100249.72;5037194;28;20699;-89
2021/09/07 08:38:58;;;;;;;7.83;6.30;;;;;;;24.07;40.05;100245.16;5021099;28;20236;-90
2021/09/07 08:41:24;;;;;;;9.90;5.65;;;;;;;24.34;40.29;100247.28;5053987;28;20676;-90
2021/09/07 08:43:53;;;;;;;6.70;5.30;;;;;;;24.52;40.83;100268.38;5035792;28;20268;-92
2021/09/07 08:46:23;;;;;;;10.95;5.72;;;;;;;24.47;40.30;100254.75;5036573;28;20265;-92
2021/09/07 08:49:13;;;;;;;7.28;5.00;;;;;;;24.79;39.33;100258.66;5022670;28;20232;-85
2021/09/07 08:51:40;;;;;;;7.45;6.18;;;;;;;24.77;38.70;100244.44;5019428;28;20742;-86
2021/09/07 08:54:06;;;;;;;6.78;6.07;;;;;;;25.04;38.24;100255.53;4996466;28;20237;-88
2021/09/07 08:56:33;;;;;;;7.82;5.50;;;;;;;24.98;38.33;100243.84;5013121;28;20230;-91
2021/09/07 08:59:00;;;;;;;8.48;6.10;;;;;;;25.16;38.78;100255.84;4996956;28;20233;-92
2021/09/07 09:01:36;;;;;;;10.25;5.68;;;;;;;25.38;38.08;100255.22;4980631;28;20642;-90
2021/09/07 09:04:03;;;;;;;7.95;5.65;;;;;;;25.43;37.38;100247.69;4996530;28;20231;-87
2021/09/07 09:06:30;;;;;;;8.38;5.93;;;;;;;25.74;37.04;100252.63;4996925;28;20227;-92
2021/09/07 09:09:02;;;;;;;6.80;5.18;;;;;;;25.77;37.85;100241.84;4996722;28;20290;-91
2021/09/07 09:11:28;;;;;;;7.85;5.63;;;;;;;25.67;37.91;100263.19;4996894;28;20282;-85
2021/09/07 09:13:56;;;;;;;7.30;6.05;;;;;;;25.36;37.47;100251.94;4980511;28;20236;-92
2021/09/07 09:16:23;;;;;;;7.30;5.65;;;;;;;25.49;37.30;100255.81;4996706;28;20239;-90
2021/09/07 09:18:50;;;;;;;8.27;5.53;;;;;;;25.10;38.60;100248.03;4996743;28;20367;-91
2021/09/07 09:21:31;;;;;;;9.68;6.00;;;;;;;25.38;38.63;100266.19;4996479;28;20314;-87
2021/09/07 09:24:19;;;;;;;6.50;5.35;;;;;;;25.12;38.96;100273.22;4980394;28;20235;-88
2021/09/07 09:26:55;;;;;;;8.05;6.28;;;;;;;25.36;37.78;100280.19;4980411;28;20315;-89
2021/09/07 09:29:24;;;;;;;10.10;5.80;;;;;;;25.12;38.03;100282.25;4996501;28;20232;-91
2021/09/07 09:31:52;;;;;;;9.30;5.80;;;;;;;25.25;38.21;100284.22;4979631;28;20223;-88
2021/09/07 09:34:19;;;;;;;8.38;5.90;;;;;;;25.53;38.24;100279.59;4983270;28;20233;-84
2021/09/07 09:37:10;;;;;;;9.02;5.65;;;;;;;25.76;38.33;100286.03;5000571;28;20302;-87
2021/09/07 09:39:43;;;;;;;6.68;5.40;;;;;;;26.26;36.30;100276.00;4983781;28;20227;-92
2021/09/07 09:42:26;;;;;;;8.48;5.88;;;;;;;26.17;36.87;100269.59;5015998;28;20262;-87
2021/09/07 09:45:03;;;;;;;8.32;5.90;;;;;;;26.69;36.59;100276.38;5001436;28;20258;-91
2021/09/07 09:47:37;;;;;;;11.13;5.93;;;;;;;26.00;37.17;100272.13;5018233;28;20506;-89
2021/09/07 09:50:04;;;;;;;9.43;6.03;;;;;;;26.34;37.54;100269.78;4984381;28;20239;-92
2021/09/07 09:52:36;;;;;;;8.43;6.32;;;;;;;26.33;37.21;100276.38;5000409;28;20623;-92
2021/09/07 09:55:05;;;;;;;11.25;6.53;;;;;;;26.51;37.42;100278.16;4999945;28;20226;-88
2021/09/07 09:57:34;;;;;;;8.65;6.50;;;;;;;26.34;37.42;100258.78;4988259;28;20280;-91
2021/09/07 10:00:02;;;;;;;9.13;6.63;;;;;;;25.91;38.21;100271.22;5037599;28;20250;-90
2021/09/07 10:02:37;;;;;;;8.07;6.25;;;;;;;26.72;37.72;100267.53;5021229;28;20231;-85
2021/09/07 10:05:06;;;;;;;8.27;6.32;;;;;;;26.69;36.49;100262.63;5004272;28;20284;-91
2021/09/07 10:07:33;;;;;;;7.78;6.18;;;;;;;26.59;36.78;100263.72;4987925;28;20540;-94
2021/09/07 10:10:00;;;;;;;11.35;6.13;;;;;;;27.15;36.33;100256.88;5003875;28;20230;-92
2021/09/07 10:12:36;;;;;;;12.68;7.35;;;;;;;26.60;36.82;100242.50;5036594;28;20260;-90
2021/09/07 10:15:54;;;;;;;7.47;6.30;;;;;;;26.83;36.86;100251.63;5020356;28;20222;-92
2021/09/07 10:19:26;;;;;;;7.32;6.22;;;;;;;27.21;36.07;100244.59;5031654;28;20294;-91
2021/09/07 10:23:55;;;;;;;7.72;6.68;;;;;;;26.66;37.27;100239.34;5020844;28;20287;-89
2021/09/07 10:26:39;;;;;;;9.25;6.80;;;;;;;26.48;37.67;100250.50;5003753;28;20238;-86
2021/09/07 10:29:10;;;;;;;8.77;7.28;;;;;;;26.20;38.05;100236.00;5035587;28;20340;-89
2021/09/07 10:31:47;;;;;;;8.48;7.13;;;;;;;26.54;37.98;100241.03;5019333;28;20235;-83
2021/09/07 10:34:15;;;;;;;9.75;7.53;;;;;;;25.72;39.71;100221.91;5002576;28;20583;-91
2021/09/07 10:37:08;;;;;;;10.07;6.97;;;;;;;26.06;38.38;100225.03;5002750;28;20245;-90
2021/09/07 10:39:45;;;;;;;8.23;7.38;;;;;;;25.53;39.88;100232.13;5003040;28;20260;-89
2021/09/07 10:42:14;;;;;;;8.00;7.07;;;;;;;25.60;39.98;100225.19;5002633;28;20230;-90
2021/09/07 10:44:59;;;;;;;8.05;7.10;;;;;;;25.77;39.93;100230.88;5001746;28;20313;-89
2021/09/07 10:47:42;;;;;;;8.48;7.03;;;;;;;25.82;39.14;100232.69;4982974;28;20292;-92
2021/09/07 10:50:09;;;;;;;7.75;6.43;;;;;;;26.18;38.70;100235.47;4982892;28;20230;-89
2021/09/07 10:52:36;;;;;;;7.47;6.00;;;;;;;26.47;37.57;100221.41;5007175;28;20225;-89
2021/09/07 10:55:09;;;;;;;7.97;6.43;;;;;;;26.54;38.02;100233.59;5018068;28;20246;-92
2021/09/07 10:57:53;;;;;;;10.27;7.10;;;;;;;27.03;36.69;100229.13;5055351;28;20260;-87
2021/09/07 11:00:19;;;;;;;9.57;6.38;;;;;;;26.44;37.90;100239.34;5022190;28;20344;-92
2021/09/07 11:02:49;;;;;;;9.13;6.72;;;;;;;26.47;38.14;100235.94;5038214;28;20251;-92
2021/09/07 11:05:23;;;;;;;7.60;6.80;;;;;;;26.42;38.84;100227.81;5055350;28;20234;-87
2021/09/07 11:07:52;;;;;;;6.97;6.13;;;;;;;26.18;39.63;100230.00;5056238;28;20244;-86
2021/09/07 11:10:19;;;;;;;8.05;6.30;;;;;;;26.35;39.29;100232.13;5021638;28;20233;-91
2021/09/07 11:13:06;;;;;;;9.32;6.75;;;;;;;25.31;40.31;100227.34;5054973;28;20565;-84
2021/09/07 11:15:36;;;;;;;7.03;6.32;;;;;;;25.69;39.40;100228.03;5022111;28;20221;-86
2021/09/07 11:18:07;;;;;;;8.45;6.03;;;;;;;25.77;38.97;100224.56;5038003;28;20292;-86
2021/09/07 11:20:37;;;;;;;7.18;5.88;;;;;;;25.93;38.19;100223.13;5022161;28;20307;-89
2021/09/07 11:23:23;;;;;;;6.80;6.10;;;;;;;26.03;38.95;100220.19;5038192;28;20225;-91
2021/09/07 11:25:57;;;;;;;7.63;6.10;;;;;;;25.83;38.80;100212.38;5038537;28;20260;-89
2021/09/07 11:28:24;;;;;;;10.02;5.70;;;;;;;25.24;40.20;100196.78;5021337;28;20243;-92
2021/09/07 11:30:52;;;;;;;7.75;5.68;;;;;;;25.99;39.17;100218.34;5021617;28;20261;-91
2021/09/07 11:33:22;;;;;;;7.32;5.93;;;;;;;25.82;38.21;100208.00;5038007;28;20234;-94
2021/09/07 11:35:51;;;;;;;7.43;5.63;;;;;;;26.13;38.10;100211.69;5036599;28;20250;-88
2021/09/07 11:38:24;;;;;;;8.18;5.70;;;;;;;26.63;37.64;100211.69;5017867;28;20246;-86
2021/09/07 11:40:56;;;;;;;8.02;5.40;;;;;;;26.29;37.60;100212.19;4986015;28;20250;-90
2021/09/07 11:43:34;;;;;;;6.40;5.47;;;;;;;26.74;37.53;100196.56;5017975;28;20302;-89
2021/09/07 11:46:15;;;;;;;7.70;5.60;;;;;;;26.90;37.14;100200.59;5017373;28;20246;-90
2021/09/07 11:48:48;;;;;;;7.65;5.70;;;;;;;26.19;38.40;100206.91;5018117;28;20230;-93
2021/09/07 11:51:17;;;;;;;6.22;5.57;;;;;;;26.37;38.36;100203.22;5018108;28;20261;-87
2021/09/07 11:53:45;;;;;;;8.13;5.70;;;;;;;26.56;38.35;100205.78;5018483;28;20237;-93
2021/09/07 11:56:19;;;;;;;9.13;5.32;;;;;;;26.58;38.29;100196.13;5017451;28;20251;-92
2021/09/07 11:58:46;;;;;;;9.73;5.88;;;;;;;27.09;37.12;100189.38;5021610;28;20244;-91
2021/09/07 12:01:26;;;;;;;7.25;5.38;;;;;;;27.37;37.24;100185.31;5003890;28;20315;-93
2021/09/07 12:04:04;;;;;;;9.70;6.07;;;;;;;27.82;35.59;100194.22;5021780;28;20224;-89
2021/09/07 12:06:36;;;;;;;6.97;5.65;;;;;;;28.12;34.19;100181.50;5037594;28;20248;-89
2021/09/07 12:09:35;;;;;;;6.47;5.45;;;;;;;28.44;34.10;100177.47;5037710;28;20227;-87
2021/09/07 12:12:04;;;;;;;9.00;6.38;;;;;;;28.44;33.82;100192.06;5036010;28;20261;-92